Relevés horaires Titlis (Suisse)


Relevés horaires à Titlis - Vendredi 07 Mai 2021
Heure UTC1 Température [°C] Vent [km/h] Hum. [%] Pres.4 [hPa] Visi. [Km] Nébu. [octa] Préc.5 [mm] Cond.
2m. Res. Ros. Dir.2 Vit. Moy. Raf.3
23:00 -9.2 -20.2 -13.0 O 44.4 -- 66.7 74 700(0.5/3h) -- -- -- --
22:00 -9.3 -20.5 -16.0 O 46.3 -- 63.0 58 700(0.4/3h) -- -- -- --
21:00 -10.3 -20.6 -10.8 O 35.2 -- 63.0 96 700(0.7/3h) -- -- -- --
20:00 -9.8 -19.9 -9.8 O 35.2 -- 61.1 100 700(0.7/3h) -- -- -- --
19:00 -9.6 -18.9 -9.6 O 29.6 -- 57.4 100 700(0.8/3h) -- -- -- --
18:00 -9.2 -18.9 -9.2 ONO 33.3 -- 68.5 100 700(0.8/3h) -- -- -- --
17:00 -9.0 -15 -9.0 NO 13.0 -- 40.7 100 700(0.8/3h) -- -- -- --
16:00 -9.0 -18.4 -9.0 ONO 31.5 -- 48.2 100 700(1.0/3h) -- -- -- --
15:00 -9.5 -20 -9.5 NO 38.9 -- 68.5 100 700(1.0/3h) -- -- -- --
14:00 -8.8 -18.6 -8.8 ONO 35.2 -- 55.6 100 700(1.1/3h) -- -- -- --
13:00 -9.0 -19.7 -9.0 ONO 42.6 -- 68.5 100 700(1.6/3h) -- -- -- --
12:00 -9.0 -19.5 -9.0 NO 40.7 -- 92.6 100 700(1.7/3h) -- -- -- --
11:00 -9.1 -17.1 -9.1 NO 22.2 -- 88.9 100 700(1.9/3h) -- -- -- --
10:00 -8.6 -21.2 -8.6 ONO 66.7 -- 92.6 100 700(1.1/3h) -- -- -- --
09:00 -7.7 -18 -7.7 ONO 42.6 -- 88.9 100 700(0.7/3h) -- -- -- --
08:00 -8.0 -19.5 -8.0 O 55.6 -- 85.2 100 700(0.5/3h) -- -- -- --
07:00 -7.8 -18.3 -7.8 O 44.4 -- 88.9 100 700(0.4/3h) -- -- -- --
06:00 -7.9 -16.7 -7.9 O 29.6 -- 100.0 100 700(0.7/3h) -- -- -- --
05:00 -7.8 -18.4 -7.8 O 46.3 -- 79.6 100 700(0.2/3h) -- -- -- --
04:00 -8.0 -17.8 -8.0 O 37.0 -- 66.7 100 700(-0.1/3h) -- -- -- --
03:00 -7.5 -15.4 -7.5 OSO 24.1 -- 83.3 100 700(-0.7/3h) -- -- -- --
02:00 -6.9 -18.1 -6.9 OSO 57.4 -- 75.9 100 700(-0.8/3h) -- -- -- --
01:00 -5.9 -15.9 -6.4 OSO 46.3 -- 83.3 96 700(-1.0/3h) -- -- -- --
00:00 -6.5 -15.8 -6.5 OSO 37.0 -- 87.0 100 700(-0.7/3h) -- -- -- --

1 Coordinated Universal Time. Actuellement il est 11:00 locale et 09:00 UTC.

2 Le vent souffle depuis la direction indiquée vers la direction oposée.

3 Les rafales max. sont disponible 40 min après l'heure du relevé.

4 Pour les stations d'altitude (plus de 600m) le géopotentiel du niveau le plus proche de la pression obligatoire est indiqué.

5 Les stations disposant d'un diffuseur peuvent indiquer "trace". Cela signifie que des précipitations ont touchés le sol mais que la quantité est inférieure à 0.1 mm.

Copyright

Les données affichées sur cette page sont la propriété exclusive de Météo Suisse.

Récapitulatif de la journée
Température [°C] Vent [km/h] Ensoleillement4 [h] Precipitations totale5 [mm] Pression [Hpa]
Min1 Max.2 Moy.3 Max. Min Max.
-8.3 -7.7 0 100.0 0 h 0 min 0 700.0 700.0

1 Température minimale relevée entre 18:00 UTC la veille et 18:00 UTC le jour donné.

2 Température maximale relevée entre 06:00 UTC le jour donné et 06:00 UTC le lendemain.

3 Vent moyen de la journée basé sur les relevés horaires.

4 Ensoleillement en heures relevé entre 06:00 UTC la veille et 06:00 UTC le jour donné.

5 Précipitations totales tombées entre 06:00 UTC la jour donné et 06:00 UTC le lendemain.

Graphiques horaires